Time;durP1;ratioP1;P1;durP2;ratioP2;P2;SDS_P1;SDS_P2;PMS_P1;PMS_P2;Temp;Humidity;BMP_temperature;BMP_pressure;BME280_temperature;BME280_humidity;BME280_pressure;Samples;Min_cycle;Max_cycle;Signal;HPM_P1;HPM_P2
2022/03/19 00:01:27;;;;;;;15.07;6.30;;;;;;;;;;5063226;28;20364;-67
2022/03/19 00:03:53;;;;;;;15.15;6.63;;;;;;;;;;5064404;28;20070;-66
2022/03/19 00:06:19;;;;;;;21.38;6.50;;;;;;;;;;5061744;28;20021;-67
2022/03/19 00:08:44;;;;;;;17.95;6.57;;;;;;;;;;5064064;28;20127;-66
2022/03/19 00:11:09;;;;;;;17.38;6.88;;;;;;;;;;5060812;28;20129;-67
2022/03/19 00:13:34;;;;;;;16.83;6.40;;;;;;;;;;5062040;28;20020;-67
2022/03/19 00:16:00;;;;;;;13.52;6.05;;;;;;;;;;5042128;28;20048;-66
2022/03/19 00:18:25;;;;;;;17.77;6.68;;;;;;;;;;5068363;28;20032;-66
2022/03/19 00:20:53;;;;;;;17.90;6.60;;;;;;;;;;5064434;28;20024;-66
2022/03/19 00:23:18;;;;;;;15.98;6.72;;;;;;;;;;5062322;28;20587;-66
2022/03/19 00:25:43;;;;;;;19.67;6.68;;;;;;;;;;5045342;28;20032;-66
2022/03/19 00:28:08;;;;;;;17.70;7.38;;;;;;;;;;5060656;28;20433;-66
2022/03/19 00:30:34;;;;;;;17.30;6.75;;;;;;;;;;5061641;28;20103;-67
2022/03/19 00:32:59;;;;;;;15.20;7.15;;;;;;;;;;5061120;28;20124;-67
2022/03/19 00:35:24;;;;;;;15.80;7.25;;;;;;;;;;5062808;28;20063;-67
2022/03/19 00:37:51;;;;;;;15.77;6.78;;;;;;;;;;5062869;28;20020;-66
2022/03/19 00:40:21;;;;;;;18.35;7.65;;;;;;;;;;5060882;28;20072;-69
2022/03/19 00:42:50;;;;;;;16.85;7.25;;;;;;;;;;5063584;28;20031;-66
2022/03/19 00:45:16;;;;;;;15.95;7.30;;;;;;;;;;5041085;28;20114;-66
2022/03/19 00:47:41;;;;;;;16.35;6.93;;;;;;;;;;5063282;28;20016;-66
2022/03/19 00:50:07;;;;;;;19.92;8.20;;;;;;;;;;5060620;28;20031;-67
2022/03/19 00:52:32;;;;;;;18.60;7.50;;;;;;;;;;5060574;28;20031;-66
2022/03/19 00:54:58;;;;;;;17.17;7.55;;;;;;;;;;5061204;28;20074;-66
2022/03/19 00:57:23;;;;;;;18.08;7.82;;;;;;;;;;5059790;28;20042;-66
2022/03/19 00:59:49;;;;;;;24.38;9.02;;;;;;;;;;5061910;28;20024;-66
2022/03/19 01:02:14;;;;;;;16.13;7.53;;;;;;;;;;5055449;28;20063;-66
2022/03/19 01:04:39;;;;;;;22.00;8.40;;;;;;;;;;5063665;28;20338;-67
2022/03/19 01:07:05;;;;;;;20.83;8.27;;;;;;;;;;5058681;28;20386;-67
2022/03/19 01:09:30;;;;;;;22.38;7.97;;;;;;;;;;5060642;28;20183;-66
2022/03/19 01:11:55;;;;;;;21.05;7.55;;;;;;;;;;5061529;28;20058;-67
2022/03/19 01:14:20;;;;;;;18.33;8.25;;;;;;;;;;5059082;28;20373;-67
2022/03/19 01:16:46;;;;;;;19.33;8.40;;;;;;;;;;5059876;28;20059;-66
2022/03/19 01:19:11;;;;;;;17.40;7.65;;;;;;;;;;5058101;28;20440;-67
2022/03/19 01:21:36;;;;;;;16.85;6.88;;;;;;;;;;5060254;28;20037;-66
2022/03/19 01:24:03;;;;;;;19.02;7.55;;;;;;;;;;5058870;28;20020;-66
2022/03/19 01:26:28;;;;;;;18.35;8.05;;;;;;;;;;5042538;28;20035;-67
2022/03/19 01:28:53;;;;;;;26.83;7.35;;;;;;;;;;5058657;28;20013;-67
2022/03/19 01:31:21;;;;;;;16.52;7.28;;;;;;;;;;5058974;28;20024;-66
2022/03/19 01:33:46;;;;;;;19.88;6.78;;;;;;;;;;5060202;28;20098;-66
2022/03/19 01:36:12;;;;;;;18.42;7.28;;;;;;;;;;5059038;28;20119;-66
2022/03/19 01:38:37;;;;;;;21.13;7.50;;;;;;;;;;5060308;28;20028;-67
2022/03/19 01:41:03;;;;;;;18.05;6.90;;;;;;;;;;5061870;28;20382;-68
2022/03/19 01:43:29;;;;;;;17.35;6.97;;;;;;;;;;5058191;28;20082;-66
2022/03/19 01:45:54;;;;;;;14.05;6.18;;;;;;;;;;5060402;28;20042;-67
2022/03/19 01:48:19;;;;;;;18.63;7.70;;;;;;;;;;5059893;28;20021;-67
2022/03/19 01:50:45;;;;;;;16.63;6.63;;;;;;;;;;5062429;28;20453;-67
2022/03/19 01:53:10;;;;;;;18.50;6.47;;;;;;;;;;5059769;28;20021;-67
2022/03/19 01:55:36;;;;;;;19.23;6.18;;;;;;;;;;5061827;28;20115;-67
2022/03/19 01:58:02;;;;;;;17.33;6.72;;;;;;;;;;5056940;28;20106;-67
2022/03/19 02:00:28;;;;;;;17.92;6.82;;;;;;;;;;5056976;28;20386;-68
2022/03/19 02:02:54;;;;;;;22.88;6.55;;;;;;;;;;5062520;28;20024;-68
2022/03/19 02:05:20;;;;;;;17.00;6.70;;;;;;;;;;5059208;28;20025;-67
2022/03/19 02:07:46;;;;;;;16.50;6.70;;;;;;;;;;5061868;28;20120;-68
2022/03/19 02:10:15;;;;;;;15.35;5.60;;;;;;;;;;5061822;28;20033;-67
2022/03/19 02:12:41;;;;;;;18.83;6.00;;;;;;;;;;5061292;28;20107;-67
2022/03/19 02:15:08;;;;;;;22.33;6.88;;;;;;;;;;5058682;28;20021;-68
2022/03/19 02:17:34;;;;;;;17.13;6.22;;;;;;;;;;5058574;28;20108;-67
2022/03/19 02:20:01;;;;;;;17.02;6.25;;;;;;;;;;5062576;28;20597;-67
2022/03/19 02:22:27;;;;;;;18.15;5.85;;;;;;;;;;5061771;28;20169;-67
2022/03/19 02:27:37;;;;;;;16.85;5.78;;;;;;;;;;5064392;28;20031;-66
2022/03/19 02:30:04;;;;;;;17.02;5.78;;;;;;;;;;5061530;28;20008;-67
2022/03/19 02:32:29;;;;;;;17.30;5.57;;;;;;;;;;5047113;28;20043;-67
2022/03/19 02:34:55;;;;;;;17.35;5.75;;;;;;;;;;5064934;28;20320;-66
2022/03/19 02:37:20;;;;;;;12.43;5.00;;;;;;;;;;5062150;28;20028;-67
2022/03/19 02:39:46;;;;;;;18.90;5.85;;;;;;;;;;5046874;28;20036;-66
2022/03/19 02:42:14;;;;;;;17.42;5.70;;;;;;;;;;5062761;28;20387;-66
2022/03/19 02:44:39;;;;;;;19.05;5.57;;;;;;;;;;5063218;28;20048;-67
2022/03/19 02:47:06;;;;;;;14.55;5.40;;;;;;;;;;5064302;28;20052;-66
2022/03/19 02:49:32;;;;;;;16.42;5.38;;;;;;;;;;5045397;28;20544;-67
2022/03/19 02:51:58;;;;;;;13.85;5.47;;;;;;;;;;5063867;28;20024;-67
2022/03/19 02:54:24;;;;;;;17.42;5.97;;;;;;;;;;5062530;28;20117;-66
2022/03/19 02:56:50;;;;;;;14.80;5.90;;;;;;;;;;5064188;28;20029;-67
2022/03/19 02:59:22;;;;;;;13.02;5.47;;;;;;;;;;5060233;28;20040;-66
2022/03/19 03:01:49;;;;;;;16.98;6.55;;;;;;;;;;5063274;28;20032;-68
2022/03/19 03:04:14;;;;;;;19.65;5.88;;;;;;;;;;5062348;28;20029;-67
2022/03/19 03:06:41;;;;;;;14.23;5.20;;;;;;;;;;5062610;28;20231;-67
2022/03/19 03:09:07;;;;;;;20.17;6.72;;;;;;;;;;5063496;28;20021;-67
2022/03/19 03:11:33;;;;;;;14.65;5.78;;;;;;;;;;5060195;28;20404;-67
2022/03/19 03:13:59;;;;;;;15.88;5.78;;;;;;;;;;5063007;28;20036;-67
2022/03/19 03:16:27;;;;;;;12.90;5.63;;;;;;;;;;5062996;28;20055;-67
2022/03/19 03:18:54;;;;;;;17.58;5.68;;;;;;;;;;5064242;28;20028;-66
2022/03/19 03:21:19;;;;;;;16.48;6.20;;;;;;;;;;5062692;28;20036;-67
2022/03/19 03:23:45;;;;;;;14.63;6.07;;;;;;;;;;5064385;28;20023;-67
2022/03/19 03:26:11;;;;;;;16.90;5.63;;;;;;;;;;5045656;28;20099;-67
2022/03/19 03:28:36;;;;;;;17.17;6.95;;;;;;;;;;5043319;28;20028;-68
2022/03/19 03:31:02;;;;;;;12.50;5.78;;;;;;;;;;5063152;28;20457;-66
2022/03/19 03:33:27;;;;;;;16.52;6.00;;;;;;;;;;5061677;28;20017;-66
2022/03/19 03:35:52;;;;;;;17.55;6.38;;;;;;;;;;5063430;28;20070;-70
2022/03/19 03:38:18;;;;;;;13.43;5.80;;;;;;;;;;5052362;28;20079;-66
2022/03/19 03:40:44;;;;;;;15.35;5.57;;;;;;;;;;5044770;28;20051;-66
2022/03/19 03:43:09;;;;;;;15.98;6.20;;;;;;;;;;5042936;28;20082;-68
2022/03/19 03:45:34;;;;;;;18.65;6.10;;;;;;;;;;5041545;28;20033;-66
2022/03/19 03:48:00;;;;;;;12.85;6.22;;;;;;;;;;5045521;28;20088;-68
2022/03/19 03:50:25;;;;;;;14.70;5.93;;;;;;;;;;5042518;28;20023;-66
2022/03/19 03:52:51;;;;;;;16.88;6.47;;;;;;;;;;5045559;28;20320;-67
2022/03/19 03:55:17;;;;;;;16.15;5.93;;;;;;;;;;5041669;28;20090;-67
2022/03/19 03:57:42;;;;;;;16.30;5.78;;;;;;;;;;5044684;28;20052;-67
2022/03/19 04:00:08;;;;;;;14.90;5.53;;;;;;;;;;5041426;28;20040;-68
2022/03/19 04:02:37;;;;;;;15.82;6.60;;;;;;;;;;5041579;28;20379;-67
2022/03/19 04:05:07;;;;;;;20.30;6.82;;;;;;;;;;5044364;28;20044;-67
2022/03/19 04:07:32;;;;;;;16.58;6.88;;;;;;;;;;5041305;28;20166;-65
2022/03/19 04:09:57;;;;;;;16.20;6.25;;;;;;;;;;5043946;28;20202;-66
2022/03/19 04:12:22;;;;;;;15.35;6.53;;;;;;;;;;5039650;28;20021;-66
2022/03/19 04:14:48;;;;;;;14.82;6.53;;;;;;;;;;5040619;28;20025;-66
2022/03/19 04:17:14;;;;;;;16.90;6.53;;;;;;;;;;5039683;28;20036;-67
2022/03/19 04:19:39;;;;;;;16.40;6.55;;;;;;;;;;5040771;28;20028;-67
2022/03/19 04:22:05;;;;;;;13.93;6.28;;;;;;;;;;5043646;28;20021;-67
2022/03/19 04:24:30;;;;;;;14.45;6.55;;;;;;;;;;5042874;28;20344;-66
2022/03/19 04:26:56;;;;;;;21.05;7.18;;;;;;;;;;5024035;28;20423;-67
2022/03/19 04:29:21;;;;;;;14.23;6.93;;;;;;;;;;5022084;28;20036;-66
2022/03/19 04:31:47;;;;;;;16.63;6.60;;;;;;;;;;5041666;28;20112;-66
2022/03/19 04:34:12;;;;;;;13.65;6.32;;;;;;;;;;5043406;28;20433;-67
2022/03/19 04:36:37;;;;;;;13.75;6.13;;;;;;;;;;5041443;28;20079;-66
2022/03/19 04:39:03;;;;;;;16.88;6.50;;;;;;;;;;5041458;28;20479;-66
2022/03/19 04:41:28;;;;;;;18.27;7.13;;;;;;;;;;5042307;28;20031;-66
2022/03/19 04:43:54;;;;;;;14.98;6.28;;;;;;;;;;5040436;28;20043;-67
2022/03/19 04:46:20;;;;;;;16.40;7.65;;;;;;;;;;5041165;28;20405;-67
2022/03/19 04:48:45;;;;;;;19.88;7.47;;;;;;;;;;5042172;28;20051;-66
2022/03/19 04:51:14;;;;;;;19.08;7.25;;;;;;;;;;5041834;28;20303;-67
2022/03/19 04:53:40;;;;;;;16.42;7.72;;;;;;;;;;5042080;28;20515;-67
2022/03/19 04:56:06;;;;;;;27.77;7.78;;;;;;;;;;5043919;28;20032;-66
2022/03/19 04:58:32;;;;;;;25.23;8.35;;;;;;;;;;5037072;28;20708;-66
2022/03/19 05:00:57;;;;;;;16.58;7.22;;;;;;;;;;5041118;28;20027;-66
2022/03/19 05:03:22;;;;;;;20.48;7.65;;;;;;;;;;5042584;28;20101;-67
2022/03/19 05:05:48;;;;;;;14.98;7.55;;;;;;;;;;5024719;28;20033;-67
2022/03/19 05:08:13;;;;;;;15.18;7.20;;;;;;;;;;5041749;28;20044;-65
2022/03/19 05:13:23;;;;;;;17.67;7.20;;;;;;;;;;5038112;28;20803;-67
2022/03/19 05:15:48;;;;;;;22.15;7.53;;;;;;;;;;5038906;28;20065;-67
2022/03/19 05:18:13;;;;;;;18.83;7.50;;;;;;;;;;5040894;28;20118;-67
2022/03/19 05:20:39;;;;;;;16.55;7.45;;;;;;;;;;5039973;28;20547;-67
2022/03/19 05:23:05;;;;;;;14.95;7.50;;;;;;;;;;5043627;28;20066;-67
2022/03/19 05:25:31;;;;;;;16.58;7.93;;;;;;;;;;5040494;28;20021;-67
2022/03/19 05:27:57;;;;;;;16.40;8.10;;;;;;;;;;5023334;28;20032;-67
2022/03/19 05:30:23;;;;;;;17.15;8.02;;;;;;;;;;5043525;28;20218;-67
2022/03/19 05:32:48;;;;;;;17.85;7.65;;;;;;;;;;5029542;28;20028;-68
2022/03/19 05:35:15;;;;;;;18.33;8.65;;;;;;;;;;5041117;28;20192;-67
2022/03/19 05:37:40;;;;;;;15.75;7.82;;;;;;;;;;5040578;28;20149;-67
2022/03/19 05:40:06;;;;;;;16.73;8.40;;;;;;;;;;5042699;28;20115;-68
2022/03/19 05:42:31;;;;;;;15.63;8.00;;;;;;;;;;5040906;28;20020;-66
2022/03/19 05:44:56;;;;;;;15.75;7.85;;;;;;;;;;5038505;28;20124;-66
2022/03/19 05:47:22;;;;;;;16.48;8.43;;;;;;;;;;5039178;28;20020;-67
2022/03/19 05:49:48;;;;;;;18.05;8.20;;;;;;;;;;5040606;28;20016;-66
2022/03/19 05:52:13;;;;;;;18.60;8.40;;;;;;;;;;5039414;28;20392;-66
2022/03/19 05:54:38;;;;;;;16.02;8.13;;;;;;;;;;5039967;28;20025;-66
2022/03/19 05:57:03;;;;;;;17.35;8.70;;;;;;;;;;5042399;28;20021;-67
2022/03/19 05:59:29;;;;;;;16.63;8.60;;;;;;;;;;5037903;28;20044;-67
2022/03/19 06:01:54;;;;;;;13.90;8.10;;;;;;;;;;5039197;28;20387;-67
2022/03/19 06:04:20;;;;;;;17.60;7.90;;;;;;;;;;5041826;28;20353;-67
2022/03/19 06:06:45;;;;;;;18.10;8.68;;;;;;;;;;5037031;28;20638;-67
2022/03/19 06:09:11;;;;;;;16.98;8.82;;;;;;;;;;5041279;28;20043;-66
2022/03/19 06:11:36;;;;;;;19.67;7.97;;;;;;;;;;5037404;28;20376;-67
2022/03/19 06:14:02;;;;;;;17.70;8.95;;;;;;;;;;5039607;28;20048;-67
2022/03/19 06:16:27;;;;;;;17.33;8.05;;;;;;;;;;5038190;28;20032;-68
2022/03/19 06:18:53;;;;;;;13.75;8.88;;;;;;;;;;5040074;28;20037;-67
2022/03/19 06:21:19;;;;;;;20.90;9.07;;;;;;;;;;5043017;28;20025;-67
2022/03/19 06:23:45;;;;;;;20.15;9.13;;;;;;;;;;5039003;28;20534;-67
2022/03/19 06:26:10;;;;;;;20.00;9.63;;;;;;;;;;5039101;28;20039;-67
2022/03/19 06:28:35;;;;;;;16.85;9.65;;;;;;;;;;5036938;28;20025;-68
2022/03/19 06:31:00;;;;;;;19.17;9.32;;;;;;;;;;5038155;28;20078;-67
2022/03/19 06:33:29;;;;;;;16.42;9.15;;;;;;;;;;5040763;28;20104;-66
2022/03/19 06:38:39;;;;;;;18.05;7.97;;;;;;;;;;5039010;28;20099;-66
2022/03/19 06:41:04;;;;;;;18.55;9.70;;;;;;;;;;5042912;28;20041;-66
2022/03/19 06:43:30;;;;;;;18.90;8.57;;;;;;;;;;5039445;28;20043;-66
2022/03/19 06:45:57;;;;;;;16.48;8.45;;;;;;;;;;5038101;28;20021;-67
2022/03/19 06:48:23;;;;;;;18.35;9.15;;;;;;;;;;5039420;28;20021;-67
2022/03/19 06:50:50;;;;;;;17.48;8.35;;;;;;;;;;5037520;28;20021;-66
2022/03/19 06:53:15;;;;;;;18.70;9.18;;;;;;;;;;5040719;28;20408;-68
2022/03/19 06:55:40;;;;;;;14.60;8.23;;;;;;;;;;5037585;28;20083;-67
2022/03/19 06:58:05;;;;;;;19.67;8.90;;;;;;;;;;5037679;28;20443;-66
2022/03/19 07:00:32;;;;;;;15.52;8.82;;;;;;;;;;5037361;28;20376;-66
2022/03/19 07:02:57;;;;;;;17.23;8.80;;;;;;;;;;5023220;28;20126;-67
2022/03/19 07:05:23;;;;;;;15.00;8.73;;;;;;;;;;5059824;28;20046;-66
2022/03/19 07:07:49;;;;;;;15.32;8.55;;;;;;;;;;5059640;28;20552;-67
2022/03/19 07:10:15;;;;;;;17.23;8.68;;;;;;;;;;5041953;28;20021;-67
2022/03/19 07:12:44;;;;;;;20.90;9.20;;;;;;;;;;5042367;28;20019;-66
2022/03/19 07:15:13;;;;;;;17.08;8.15;;;;;;;;;;5038762;28;20025;-67
2022/03/19 07:17:39;;;;;;;16.08;8.77;;;;;;;;;;5041786;28;20020;-67
2022/03/19 07:20:04;;;;;;;13.40;8.02;;;;;;;;;;5044151;28;20029;-67
2022/03/19 07:22:44;;;;;;;17.33;8.98;;;;;;;;;;5042193;28;20203;-67
2022/03/19 07:25:10;;;;;;;17.08;9.15;;;;;;;;;;5042134;28;20316;-68
2022/03/19 07:27:35;;;;;;;17.42;8.57;;;;;;;;;;5041025;28;20061;-67
2022/03/19 07:30:02;;;;;;;18.27;8.73;;;;;;;;;;5041064;28;20048;-66
2022/03/19 07:32:27;;;;;;;14.00;8.75;;;;;;;;;;5024339;28;20076;-67
2022/03/19 07:34:52;;;;;;;17.50;8.95;;;;;;;;;;5042006;28;20519;-67
2022/03/19 07:37:17;;;;;;;16.50;8.07;;;;;;;;;;5042559;28;20371;-67
2022/03/19 07:39:43;;;;;;;14.77;8.10;;;;;;;;;;5041776;28;20597;-66
2022/03/19 07:42:09;;;;;;;12.93;8.25;;;;;;;;;;5042054;28;20539;-67
2022/03/19 07:44:34;;;;;;;18.38;8.27;;;;;;;;;;5041384;28;20029;-67
2022/03/19 07:46:59;;;;;;;14.10;8.15;;;;;;;;;;5037884;28;20130;-66
2022/03/19 07:49:24;;;;;;;20.30;8.18;;;;;;;;;;5044984;28;20021;-67
2022/03/19 07:51:55;;;;;;;13.57;7.28;;;;;;;;;;5041248;28;20430;-66
2022/03/19 07:54:21;;;;;;;15.75;7.65;;;;;;;;;;5027874;28;20033;-67
2022/03/19 07:56:46;;;;;;;15.75;7.35;;;;;;;;;;5043377;28;20447;-65
2022/03/19 07:59:12;;;;;;;16.13;7.30;;;;;;;;;;5042420;28;20379;-66
2022/03/19 08:01:37;;;;;;;15.13;7.05;;;;;;;;;;5040190;28;20134;-66
2022/03/19 08:04:02;;;;;;;15.65;7.10;;;;;;;;;;5041893;28;20376;-67
2022/03/19 08:06:28;;;;;;;14.50;7.15;;;;;;;;;;5041792;28;20112;-67
2022/03/19 08:08:53;;;;;;;16.17;6.70;;;;;;;;;;5041064;28;20025;-66
2022/03/19 08:11:19;;;;;;;13.82;6.28;;;;;;;;;;5043844;28;20040;-67
2022/03/19 08:13:44;;;;;;;14.07;6.63;;;;;;;;;;5037613;28;20071;-67
2022/03/19 08:16:10;;;;;;;16.20;6.40;;;;;;;;;;5040950;28;20189;-67
2022/03/19 08:18:35;;;;;;;13.73;5.85;;;;;;;;;;5039479;28;20028;-67
2022/03/19 08:21:01;;;;;;;13.30;5.60;;;;;;;;;;5041545;28;20041;-68
2022/03/19 08:23:26;;;;;;;14.55;6.00;;;;;;;;;;5043084;28;20027;-67
2022/03/19 08:25:51;;;;;;;17.25;6.07;;;;;;;;;;5038298;28;20029;-67
2022/03/19 08:28:17;;;;;;;14.32;6.10;;;;;;;;;;5041153;28;20409;-67
2022/03/19 08:30:42;;;;;;;11.70;5.55;;;;;;;;;;5039226;28;20013;-68
2022/03/19 08:33:07;;;;;;;13.13;5.88;;;;;;;;;;5042408;28;20344;-66
2022/03/19 08:35:33;;;;;;;14.18;5.45;;;;;;;;;;5042188;28;20025;-67
2022/03/19 08:40:42;;;;;;;17.13;6.00;;;;;;;;;;5041412;28;20421;-67
2022/03/19 08:43:08;;;;;;;11.70;5.00;;;;;;;;;;5042873;28;20044;-67
2022/03/19 08:45:34;;;;;;;15.00;4.70;;;;;;;;;;5059899;28;20445;-68
2022/03/19 08:47:59;;;;;;;12.20;4.82;;;;;;;;;;5059148;28;20016;-66
2022/03/19 08:50:27;;;;;;;11.18;4.85;;;;;;;;;;5063553;28;20028;-67
2022/03/19 08:52:55;;;;;;;13.80;4.80;;;;;;;;;;5060776;28;20052;-66
2022/03/19 08:55:21;;;;;;;10.80;4.88;;;;;;;;;;5061535;28;20024;-68
2022/03/19 08:57:46;;;;;;;13.90;4.82;;;;;;;;;;5061725;28;20314;-66
2022/03/19 09:00:13;;;;;;;13.30;4.72;;;;;;;;;;5057291;28;20449;-67
2022/03/19 09:02:38;;;;;;;9.43;4.00;;;;;;;;;;5061256;28;20043;-68
2022/03/19 09:05:04;;;;;;;12.32;4.25;;;;;;;;;;5042853;28;20459;-67
2022/03/19 09:07:29;;;;;;;11.77;3.70;;;;;;;;;;5061841;28;20028;-67
2022/03/19 09:09:55;;;;;;;11.82;3.88;;;;;;;;;;5058688;28;20359;-68
2022/03/19 09:12:21;;;;;;;9.40;3.63;;;;;;;;;;5061046;28;20024;-67
2022/03/19 09:14:46;;;;;;;10.73;3.30;;;;;;;;;;5057498;28;20020;-67
2022/03/19 09:17:12;;;;;;;7.45;3.13;;;;;;;;;;5050804;28;20029;-66
2022/03/19 09:19:39;;;;;;;10.43;4.10;;;;;;;;;;5047324;28;20032;-67
2022/03/19 09:22:04;;;;;;;8.38;3.40;;;;;;;;;;5040005;28;20110;-66
2022/03/19 09:24:30;;;;;;;10.52;3.90;;;;;;;;;;5061302;28;20140;-67
2022/03/19 09:26:55;;;;;;;10.57;3.97;;;;;;;;;;5059942;28;20193;-67
2022/03/19 09:29:20;;;;;;;10.27;4.25;;;;;;;;;;5057808;28;20485;-68
2022/03/19 09:31:46;;;;;;;10.88;3.95;;;;;;;;;;5038661;28;20060;-66
2022/03/19 09:34:11;;;;;;;8.35;4.00;;;;;;;;;;5061070;28;20028;-66
2022/03/19 09:36:37;;;;;;;8.18;3.72;;;;;;;;;;5061380;28;20031;-66
2022/03/19 09:39:03;;;;;;;9.40;4.00;;;;;;;;;;5043719;28;20035;-67
2022/03/19 09:41:28;;;;;;;9.15;4.18;;;;;;;;;;5063389;28;20025;-66
2022/03/19 09:43:55;;;;;;;9.20;3.80;;;;;;;;;;5055397;28;20036;-67
2022/03/19 09:46:21;;;;;;;9.23;3.50;;;;;;;;;;5059463;28;20501;-68
2022/03/19 09:48:46;;;;;;;8.45;4.07;;;;;;;;;;5060177;28;20037;-67
2022/03/19 09:51:11;;;;;;;8.40;3.72;;;;;;;;;;5061331;28;20131;-67
2022/03/19 09:53:39;;;;;;;9.70;3.70;;;;;;;;;;5061029;28;20048;-67
2022/03/19 09:56:04;;;;;;;7.55;3.75;;;;;;;;;;5059531;28;20426;-68
2022/03/19 09:58:30;;;;;;;10.30;3.58;;;;;;;;;;5058497;28;20114;-66
2022/03/19 10:01:02;;;;;;;7.07;3.92;;;;;;;;;;5058018;28;20025;-68
2022/03/19 10:03:27;;;;;;;8.20;3.78;;;;;;;;;;5061099;28;20021;-68
2022/03/19 10:08:36;;;;;;;8.93;3.63;;;;;;;;;;5058999;28;20027;-68
2022/03/19 10:11:09;;;;;;;6.70;3.50;;;;;;;;;;5058532;28;20354;-67
2022/03/19 10:13:44;;;;;;;8.63;3.78;;;;;;;;;;5058642;28;20048;-68
2022/03/19 10:16:10;;;;;;;9.70;4.03;;;;;;;;;;5052586;28;20533;-67
2022/03/19 10:18:36;;;;;;;9.82;4.30;;;;;;;;;;5054219;28;20085;-67
2022/03/19 10:21:02;;;;;;;8.15;3.90;;;;;;;;;;5050990;28;20534;-67
2022/03/19 10:23:35;;;;;;;9.60;4.13;;;;;;;;;;5058907;28;20032;-69
2022/03/19 10:26:01;;;;;;;;;;;;;;;;;;5059725;28;20307;-67
2022/03/19 10:28:30;;;;;;;8.65;3.67;;;;;;;;;;5050374;28;19963;-67
2022/03/19 10:30:55;;;;;;;8.00;4.03;;;;;;;;;;5039400;28;20025;-67
2022/03/19 10:33:23;;;;;;;9.57;4.10;;;;;;;;;;5032049;28;20402;-67
2022/03/19 10:35:48;;;;;;;7.25;3.78;;;;;;;;;;5039454;28;20028;-67
2022/03/19 10:38:16;;;;;;;10.98;3.83;;;;;;;;;;5038495;28;20535;-67
2022/03/19 10:40:43;;;;;;;6.63;3.55;;;;;;;;;;5041671;28;20029;-69
2022/03/19 10:43:09;;;;;;;8.60;2.95;;;;;;;;;;5034775;28;20067;-68
2022/03/19 10:45:41;;;;;;;9.35;3.28;;;;;;;;;;5045328;28;20068;-67
2022/03/19 10:48:07;;;;;;;8.02;3.40;;;;;;;;;;5049935;28;20016;-67
2022/03/19 10:50:32;;;;;;;9.45;3.35;;;;;;;;;;5064352;28;20032;-67
2022/03/19 10:52:58;;;;;;;7.72;3.15;;;;;;;;;;5059704;28;20454;-67
2022/03/19 10:55:24;;;;;;;7.40;3.10;;;;;;;;;;5063682;28;20079;-66
2022/03/19 10:57:49;;;;;;;6.50;3.08;;;;;;;;;;5061698;28;20025;-66
2022/03/19 11:00:16;;;;;;;6.72;2.90;;;;;;;;;;5062920;28;20540;-67
2022/03/19 11:02:46;;;;;;;8.50;2.97;;;;;;;;;;5058572;28;20028;-67
2022/03/19 11:05:14;;;;;;;7.30;3.10;;;;;;;;;;5063923;28;20033;-67
2022/03/19 11:07:43;;;;;;;5.43;2.90;;;;;;;;;;5063957;28;20478;-68
2022/03/19 11:10:09;;;;;;;7.65;2.80;;;;;;;;;;5062313;28;20818;-67
2022/03/19 11:12:35;;;;;;;7.63;2.95;;;;;;;;;;5061756;28;20033;-68
2022/03/19 11:15:02;;;;;;;6.53;2.80;;;;;;;;;;5060050;28;20078;-68
2022/03/19 11:17:30;;;;;;;6.38;2.50;;;;;;;;;;5058532;28;20482;-68
2022/03/19 11:20:02;;;;;;;5.15;2.83;;;;;;;;;;5064380;28;20475;-67
2022/03/19 11:22:47;;;;;;;6.47;2.78;;;;;;;;;;5061461;28;20070;-67
2022/03/19 11:25:16;;;;;;;5.43;2.50;;;;;;;;;;5061155;28;20207;-67
2022/03/19 11:27:44;;;;;;;4.45;2.10;;;;;;;;;;5062998;28;20047;-67
2022/03/19 11:30:23;;;;;;;4.38;2.22;;;;;;;;;;5060427;28;20092;-69
2022/03/19 11:33:00;;;;;;;4.43;2.10;;;;;;;;;;5049010;28;20017;-68
2022/03/19 11:35:26;;;;;;;4.55;1.95;;;;;;;;;;5045828;28;20215;-68
2022/03/19 11:38:01;;;;;;;4.50;2.15;;;;;;;;;;5042015;28;20536;-67
2022/03/19 11:40:29;;;;;;;4.25;2.15;;;;;;;;;;5043408;28;20387;-67
2022/03/19 11:42:55;;;;;;;4.00;2.17;;;;;;;;;;5041998;28;20021;-68
2022/03/19 11:45:20;;;;;;;4.65;2.08;;;;;;;;;;5023582;28;20451;-66
2022/03/19 11:47:46;;;;;;;8.15;2.35;;;;;;;;;;5037771;28;20029;-67
2022/03/19 11:50:18;;;;;;;6.68;2.42;;;;;;;;;;5041092;28;20468;-67
2022/03/19 11:52:44;;;;;;;8.73;2.47;;;;;;;;;;5040116;28;20136;-67
2022/03/19 11:55:10;;;;;;;5.38;2.33;;;;;;;;;;5041846;28;20270;-66
2022/03/19 11:57:50;;;;;;;6.35;2.40;;;;;;;;;;5040952;28;20383;-67
2022/03/19 12:00:16;;;;;;;4.85;2.20;;;;;;;;;;5021322;28;20681;-67
2022/03/19 12:03:02;;;;;;;3.67;2.30;;;;;;;;;;5043165;28;20158;-66
2022/03/19 12:05:27;;;;;;;3.05;1.98;;;;;;;;;;5047634;28;20036;-67
2022/03/19 12:07:54;;;;;;;4.90;2.30;;;;;;;;;;5040404;28;20017;-67
2022/03/19 12:10:21;;;;;;;4.50;2.20;;;;;;;;;;5039942;28;20103;-67
2022/03/19 12:12:47;;;;;;;6.45;2.65;;;;;;;;;;5024618;28;20048;-67
2022/03/19 12:15:42;;;;;;;9.63;2.53;;;;;;;;;;5039135;28;20020;-68
2022/03/19 12:18:27;;;;;;;4.53;2.25;;;;;;;;;;5026976;28;20218;-67
2022/03/19 12:20:57;;;;;;;3.88;2.25;;;;;;;;;;5042245;28;20044;-67
2022/03/19 12:23:23;;;;;;;3.85;2.20;;;;;;;;;;5041804;28;20032;-67
2022/03/19 12:25:58;;;;;;;5.50;2.03;;;;;;;;;;5043176;28;20410;-68
2022/03/19 12:28:24;;;;;;;4.90;1.88;;;;;;;;;;5043113;28;20035;-67
2022/03/19 12:30:49;;;;;;;5.03;1.80;;;;;;;;;;5064070;28;20332;-67
2022/03/19 12:33:14;;;;;;;5.57;2.03;;;;;;;;;;5063169;28;20479;-67
2022/03/19 12:35:43;;;;;;;4.85;2.38;;;;;;;;;;5062190;28;20186;-69
2022/03/19 12:38:09;;;;;;;6.15;2.03;;;;;;;;;;5060307;28;20039;-67
2022/03/19 12:43:19;;;;;;;6.35;2.10;;;;;;;;;;5059640;28;20328;-68
2022/03/19 12:45:47;;;;;;;8.68;2.72;;;;;;;;;;5064808;28;20032;-69
2022/03/19 12:48:18;;;;;;;4.63;2.13;;;;;;;;;;5054622;28;20382;-68
2022/03/19 12:50:49;;;;;;;4.07;1.88;;;;;;;;;;5062299;28;20105;-68
2022/03/19 12:53:14;;;;;;;5.32;2.13;;;;;;;;;;5060566;28;20331;-67
2022/03/19 12:55:40;;;;;;;4.43;2.15;;;;;;;;;;5061369;28;20304;-68
2022/03/19 12:58:05;;;;;;;5.00;1.80;;;;;;;;;;5058061;28;20375;-68
2022/03/19 13:00:30;;;;;;;3.67;1.67;;;;;;;;;;5063800;28;20066;-68
2022/03/19 13:02:56;;;;;;;3.90;2.00;;;;;;;;;;5059571;28;20521;-68
2022/03/19 13:05:22;;;;;;;4.47;1.95;;;;;;;;;;5044631;28;20545;-68
2022/03/19 13:08:04;;;;;;;5.13;2.47;;;;;;;;;;5062156;28;20024;-67
2022/03/19 13:10:29;;;;;;;5.72;2.33;;;;;;;;;;5063900;28;20029;-68
2022/03/19 13:13:08;;;;;;;5.03;2.33;;;;;;;;;;5062437;28;20029;-67
2022/03/19 13:15:33;;;;;;;5.25;2.20;;;;;;;;;;5061472;28;20073;-67
2022/03/19 13:17:59;;;;;;;4.95;2.17;;;;;;;;;;5054862;28;20032;-69
2022/03/19 13:20:24;;;;;;;6.82;2.10;;;;;;;;;;5060996;28;20073;-67
2022/03/19 13:22:50;;;;;;;3.92;2.13;;;;;;;;;;5062685;28;20028;-67
2022/03/19 13:25:16;;;;;;;5.43;1.90;;;;;;;;;;5059067;28;20521;-68
2022/03/19 13:27:41;;;;;;;8.00;1.95;;;;;;;;;;5061447;28;20096;-67
2022/03/19 13:30:11;;;;;;;5.40;2.05;;;;;;;;;;5059039;28;20370;-67
2022/03/19 13:32:37;;;;;;;4.80;2.10;;;;;;;;;;5056067;28;20024;-67
2022/03/19 13:35:02;;;;;;;5.07;1.60;;;;;;;;;;5058449;28;20092;-67
2022/03/19 13:37:34;;;;;;;4.65;1.73;;;;;;;;;;5061248;28;20112;-68
2022/03/19 13:40:03;;;;;;;5.13;1.98;;;;;;;;;;5061309;28;20541;-68
2022/03/19 13:42:32;;;;;;;4.20;1.67;;;;;;;;;;5060057;28;20035;-68
2022/03/19 13:45:07;;;;;;;3.15;1.88;;;;;;;;;;5061162;28;20146;-68
2022/03/19 13:47:34;;;;;;;3.50;1.55;;;;;;;;;;5056657;28;20013;-67
2022/03/19 13:50:00;;;;;;;2.92;1.33;;;;;;;;;;5059578;28;20549;-67
2022/03/19 13:52:45;;;;;;;3.45;1.30;;;;;;;;;;5059088;28;20036;-67
2022/03/19 13:55:19;;;;;;;4.15;1.50;;;;;;;;;;5060147;28;20028;-67
2022/03/19 13:57:49;;;;;;;2.97;1.38;;;;;;;;;;5060137;28;20362;-67
2022/03/19 14:00:16;;;;;;;4.60;1.48;;;;;;;;;;5058320;28;20056;-69
2022/03/19 14:02:49;;;;;;;6.60;1.70;;;;;;;;;;5053972;28;20626;-68
2022/03/19 14:05:14;;;;;;;4.97;1.67;;;;;;;;;;5053793;28;20510;-68
2022/03/19 14:07:40;;;;;;;3.20;1.55;;;;;;;;;;5039600;28;20052;-68
2022/03/19 14:10:06;;;;;;;3.47;1.70;;;;;;;;;;5036017;28;20052;-67
2022/03/19 14:12:35;;;;;;;2.42;1.50;;;;;;;;;;5040659;28;20073;-68
2022/03/19 14:15:02;;;;;;;3.95;1.50;;;;;;;;;;5038913;28;20025;-68
2022/03/19 14:17:43;;;;;;;6.13;1.65;;;;;;;;;;5036718;28;20051;-68
2022/03/19 14:20:10;;;;;;;6.18;1.80;;;;;;;;;;5044208;28;20021;-68
2022/03/19 14:22:35;;;;;;;4.88;1.90;;;;;;;;;;5043787;28;20138;-67
2022/03/19 14:25:01;;;;;;;3.95;1.63;;;;;;;;;;5044957;28;20543;-67
2022/03/19 14:27:26;;;;;;;10.65;2.13;;;;;;;;;;5025336;28;20501;-67
2022/03/19 14:29:51;;;;;;;5.03;1.75;;;;;;;;;;5045006;28;20032;-67
2022/03/19 14:32:18;;;;;;;4.07;1.73;;;;;;;;;;5047050;28;20021;-67
2022/03/19 14:34:43;;;;;;;4.18;1.58;;;;;;;;;;5042724;28;20487;-68
2022/03/19 14:37:08;;;;;;;5.90;1.90;;;;;;;;;;5042628;28;20032;-68
2022/03/19 14:39:34;;;;;;;4.30;1.52;;;;;;;;;;5044435;28;20513;-68
2022/03/19 14:42:00;;;;;;;4.63;2.00;;;;;;;;;;5044753;28;20471;-68
2022/03/19 14:44:25;;;;;;;6.60;1.70;;;;;;;;;;5040118;28;20325;-67
2022/03/19 14:46:51;;;;;;;3.28;1.88;;;;;;;;;;5044018;28;20126;-68
2022/03/19 14:49:16;;;;;;;3.60;2.03;;;;;;;;;;5041675;28;20071;-66